KGRF

Gray AAF Airport

Fort Lewis/Tacoma, Washington, USA
METAR KGRF 232058Z 00000KT 5SM BR FEW180 FEW210 11/09 A2994 RMK AO2A SLP144 58003 $
Observed Flight Rules
Oct-23 @ 20:58 UTC (17 minutes ago) Marginal Visual Flight Rules
Visibility Clouds Conditions
5 miles
  • Few at 18,000' AGL
  • Few at 21,000' AGL
  • Mist
Temperatures Readings
Current 11°C / 52°F
Dewpoint 9°C / 48°F
Humidity 88%
Altimeter 29.94" Hg
Pressure 1014.4 hPa
Elevation 92
METAR KGRF 232058Z 00000KT 5SM BR FEW180 FEW210 11/09 A2994 RMK AO2A SLP144 58003 $
Observed Flight Rules
Oct-23 @ 20:58 UTC
(17 minutes ago)
MVFR
Clouds
  • Few at 18,000' AGL
  • Few at 21,000' AGL
Conditions
  • Mist
Temperature Dewpoint
11°C / 52°F 9°C / 48°F
Humidity Altimeter Pressure
88% 29.94" Hg 1014.4 hPa